Terminal Aerodrome Forecast
Issued by NWS

Home | Current Version | Previous Version | Text Only | Print | Product List | Glossary On
Versions: 1 2 3 4 5 6 7 8 9 10 11 12 13 14 15 16
000
FTUS45 KGJT 212344 AAB
TAFASE
TAF AMD
KASE 212344Z 2200/2224 16006KT P6SM BKN050
     FM220200 13006KT P6SM BKN050 WS020/23040KT
     FM221000 18010G24KT P6SM BKN040 WS020/24035KT
     FM221500 17007KT P6SM BKN040
     FM221800 26010KT P6SM BKN050
     FM222200 20008KT P6SM BKN045=

USA.gov is the U.S. government's official web portal to all federal, state and local government web resources and services.